Time;durP1;ratioP1;P1;durP2;ratioP2;P2;SDS_P1;SDS_P2;PMS_P1;PMS_P2;Temp;Humidity;BMP_temperature;BMP_pressure;BME280_temperature;BME280_humidity;BME280_pressure;Samples;Min_cycle;Max_cycle;Signal;HPM_P1;HPM_P2
2021/07/29 00:02:05;;;;;;;3.65;3.13;;;;;;;;;;4918041;29;20083;-65
2021/07/29 00:04:32;;;;;;;3.95;3.10;;;;;;;;;;4917750;29;20052;-65
2021/07/29 00:06:59;;;;;;;4.20;3.47;;;;;;;;;;4918213;29;20423;-65
2021/07/29 00:09:26;;;;;;;3.90;3.25;;;;;;;;;;4917976;29;20082;-65
2021/07/29 00:11:52;;;;;;;6.38;3.45;;;;;;;;;;4917788;29;20087;-65
2021/07/29 00:14:19;;;;;;;6.05;3.72;;;;;;;;;;4917827;29;20135;-65
2021/07/29 00:16:50;;;;;;;6.78;3.83;;;;;;;;;;4918096;29;20106;-65
2021/07/29 00:19:16;;;;;;;4.88;3.90;;;;;;;;;;4917717;29;20087;-66
2021/07/29 00:21:44;;;;;;;3.78;3.30;;;;;;;;;;4917711;29;20087;-65
2021/07/29 00:24:11;;;;;;;5.30;3.83;;;;;;;;;;4917541;29;20091;-65
2021/07/29 00:26:39;;;;;;;6.93;3.90;;;;;;;;;;4917556;29;20052;-65
2021/07/29 00:29:06;;;;;;;4.15;3.60;;;;;;;;;;4917709;29;20386;-65
2021/07/29 00:31:33;;;;;;;5.55;3.65;;;;;;;;;;4931601;29;20479;-65
2021/07/29 00:34:01;;;;;;;4.22;3.65;;;;;;;;;;4935003;29;20086;-65
2021/07/29 00:36:27;;;;;;;4.70;3.97;;;;;;;;;;4936502;29;20139;-65
2021/07/29 00:38:55;;;;;;;7.97;3.97;;;;;;;;;;4936224;29;20055;-65
2021/07/29 00:41:21;;;;;;;5.70;4.05;;;;;;;;;;4935657;29;20507;-65
2021/07/29 00:44:03;;;;;;;5.22;4.60;;;;;;;;;;4935939;29;20079;-65
2021/07/29 00:46:33;;;;;;;5.20;3.85;;;;;;;;;;4919055;29;20516;-65
2021/07/29 00:49:01;;;;;;;5.97;3.97;;;;;;;;;;4916153;29;20045;-65
2021/07/29 00:51:27;;;;;;;6.55;4.35;;;;;;;;;;4917277;29;20048;-65
2021/07/29 00:53:54;;;;;;;4.53;3.30;;;;;;;;;;4916844;29;20087;-65
2021/07/29 00:56:20;;;;;;;5.03;4.38;;;;;;;;;;4900397;29;20091;-65
2021/07/29 00:58:47;;;;;;;5.97;4.38;;;;;;;;;;4915577;29;20130;-65
2021/07/29 01:01:14;;;;;;;7.60;4.72;;;;;;;;;;4916975;29;20099;-65
2021/07/29 01:03:41;;;;;;;5.20;4.10;;;;;;;;;;4916562;29;20060;-66
2021/07/29 01:06:07;;;;;;;7.28;4.55;;;;;;;;;;4916993;29;20099;-65
2021/07/29 01:09:04;;;;;;;6.82;4.95;;;;;;;;;;4916704;29;20102;-65
2021/07/29 01:11:30;;;;;;;5.13;3.53;;;;;;;;;;4916918;29;20146;-67
2021/07/29 01:13:57;;;;;;;6.78;4.30;;;;;;;;;;4916350;29;20127;-68
2021/07/29 01:16:23;;;;;;;5.10;3.88;;;;;;;;;;4916944;29;20414;-66
2021/07/29 01:18:50;;;;;;;6.03;4.35;;;;;;;;;;4916375;29;20060;-67
2021/07/29 01:21:16;;;;;;;4.55;3.58;;;;;;;;;;4916680;29;20098;-67
2021/07/29 01:23:44;;;;;;;5.10;3.83;;;;;;;;;;4916344;29;20088;-67
2021/07/29 01:26:10;;;;;;;4.93;3.58;;;;;;;;;;4916604;29;20431;-67
2021/07/29 01:28:37;;;;;;;4.32;3.63;;;;;;;;;;4916426;29;20477;-67
2021/07/29 01:31:04;;;;;;;5.13;3.67;;;;;;;;;;4916423;29;20119;-67
2021/07/29 01:33:30;;;;;;;5.20;4.00;;;;;;;;;;4916202;29;20135;-67
2021/07/29 01:35:57;;;;;;;5.35;4.15;;;;;;;;;;4915177;29;20563;-67
2021/07/29 01:38:23;;;;;;;4.53;3.90;;;;;;;;;;4916401;29;20076;-68
2021/07/29 01:40:50;;;;;;;4.05;3.65;;;;;;;;;;4916054;29;20083;-66
2021/07/29 01:43:16;;;;;;;5.38;3.88;;;;;;;;;;4915981;29;20091;-67
2021/07/29 01:45:46;;;;;;;4.30;3.83;;;;;;;;;;4916019;29;20087;-67
2021/07/29 01:48:13;;;;;;;5.40;3.72;;;;;;;;;;4916261;29;20091;-67
2021/07/29 01:50:39;;;;;;;4.63;3.80;;;;;;;;;;4915967;29;20139;-67
2021/07/29 01:53:06;;;;;;;5.38;4.07;;;;;;;;;;4915674;29;20131;-67
2021/07/29 01:55:32;;;;;;;5.05;3.50;;;;;;;;;;4916066;29;20132;-67
2021/07/29 01:57:59;;;;;;;4.85;4.18;;;;;;;;;;4915992;29;20063;-67
2021/07/29 02:00:25;;;;;;;4.85;3.97;;;;;;;;;;4915788;29;20139;-67
2021/07/29 02:02:52;;;;;;;4.65;4.25;;;;;;;;;;4915610;29;20464;-67
2021/07/29 02:05:19;;;;;;;5.38;3.97;;;;;;;;;;4915995;29;20071;-67
2021/07/29 02:07:45;;;;;;;6.78;4.00;;;;;;;;;;4915746;29;20555;-67
2021/07/29 02:10:12;;;;;;;5.88;4.35;;;;;;;;;;4925654;29;20087;-67
2021/07/29 02:12:39;;;;;;;4.18;3.75;;;;;;;;;;4934472;29;20079;-67
2021/07/29 02:15:07;;;;;;;6.47;4.18;;;;;;;;;;4934915;29;20051;-67
2021/07/29 02:17:33;;;;;;;4.75;4.20;;;;;;;;;;4934689;29;20091;-67
2021/07/29 02:20:00;;;;;;;5.45;4.00;;;;;;;;;;4934750;29;20063;-67
2021/07/29 02:22:27;;;;;;;5.90;4.05;;;;;;;;;;4934583;29;20365;-67
2021/07/29 02:24:53;;;;;;;6.40;4.05;;;;;;;;;;4934331;29;20090;-67
2021/07/29 02:27:23;;;;;;;4.95;4.45;;;;;;;;;;4934792;29;20079;-67
2021/07/29 02:29:51;;;;;;;5.75;4.80;;;;;;;;;;4934647;29;20142;-67
2021/07/29 02:32:17;;;;;;;9.15;4.88;;;;;;;;;;4934442;29;20085;-66
2021/07/29 02:34:44;;;;;;;6.40;4.13;;;;;;;;;;4940100;23;20135;-66
2021/07/29 02:37:10;;;;;;;6.20;4.30;;;;;;;;;;4915048;29;20087;-66
2021/07/29 02:39:40;;;;;;;4.80;4.30;;;;;;;;;;4933049;29;20083;-66
2021/07/29 02:42:07;;;;;;;4.97;3.92;;;;;;;;;;4933887;29;20079;-66
2021/07/29 02:44:34;;;;;;;5.38;4.53;;;;;;;;;;4933373;29;20086;-66
2021/07/29 02:47:01;;;;;;;8.05;4.35;;;;;;;;;;4933826;29;20191;-66
2021/07/29 02:49:27;;;;;;;6.05;4.68;;;;;;;;;;4931979;29;20485;-67
2021/07/29 02:51:54;;;;;;;5.43;4.15;;;;;;;;;;4933285;29;20102;-67
2021/07/29 02:54:20;;;;;;;6.80;4.50;;;;;;;;;;4932041;29;20534;-66
2021/07/29 02:56:47;;;;;;;4.97;4.47;;;;;;;;;;4914446;29;20087;-67
2021/07/29 02:59:13;;;;;;;5.22;4.32;;;;;;;;;;4914605;29;20135;-66
2021/07/29 03:01:40;;;;;;;6.57;5.13;;;;;;;;;;4914474;29;20131;-66
2021/07/29 03:04:07;;;;;;;7.60;4.60;;;;;;;;;;4916762;29;20135;-66
2021/07/29 03:06:33;;;;;;;5.78;5.15;;;;;;;;;;4917601;29;20056;-67
2021/07/29 03:09:00;;;;;;;5.78;4.47;;;;;;;;;;4917811;29;20479;-67
2021/07/29 03:11:27;;;;;;;6.63;4.55;;;;;;;;;;4917863;29;20052;-67
2021/07/29 03:13:54;;;;;;;4.60;3.95;;;;;;;;;;4917397;29;20090;-66
2021/07/29 03:16:20;;;;;;;4.75;4.13;;;;;;;;;;4916539;29;20058;-66
2021/07/29 03:18:47;;;;;;;8.27;4.53;;;;;;;;;;4918331;29;20059;-66
2021/07/29 03:21:14;;;;;;;6.35;4.40;;;;;;;;;;4936456;29;20056;-67
2021/07/29 03:23:40;;;;;;;5.93;4.43;;;;;;;;;;4936215;29;20083;-67
2021/07/29 03:26:07;;;;;;;4.63;4.18;;;;;;;;;;4936421;29;20520;-66
2021/07/29 03:28:33;;;;;;;5.18;4.38;;;;;;;;;;4936468;29;20083;-67
2021/07/29 03:31:00;;;;;;;6.90;4.90;;;;;;;;;;4936414;29;20558;-67
2021/07/29 03:33:26;;;;;;;10.63;5.68;;;;;;;;;;4896787;29;1101828;-67
2021/07/29 03:35:53;;;;;;;6.20;4.45;;;;;;;;;;4918304;29;20131;-67
2021/07/29 03:38:19;;;;;;;5.57;4.55;;;;;;;;;;4918624;29;20075;-67
2021/07/29 03:40:47;;;;;;;6.38;4.78;;;;;;;;;;4918219;29;20095;-67
2021/07/29 03:43:13;;;;;;;5.60;4.70;;;;;;;;;;4918346;29;20079;-66
2021/07/29 03:45:40;;;;;;;8.65;5.60;;;;;;;;;;4918408;29;20131;-66
2021/07/29 03:48:07;;;;;;;6.95;5.13;;;;;;;;;;4918353;29;20052;-67
2021/07/29 03:50:33;;;;;;;6.22;4.90;;;;;;;;;;4918272;29;20135;-67
2021/07/29 03:53:00;;;;;;;5.43;4.40;;;;;;;;;;4917769;29;20048;-67
2021/07/29 03:55:27;;;;;;;6.20;4.50;;;;;;;;;;4917106;29;20088;-66
2021/07/29 03:57:53;;;;;;;5.57;4.63;;;;;;;;;;4918064;29;20048;-66
2021/07/29 04:00:20;;;;;;;5.13;4.55;;;;;;;;;;4918183;29;20088;-66
2021/07/29 04:02:46;;;;;;;6.28;4.30;;;;;;;;;;4917969;29;20076;-66
2021/07/29 04:05:13;;;;;;;5.30;3.75;;;;;;;;;;4917966;29;20063;-67
2021/07/29 04:07:40;;;;;;;7.20;4.53;;;;;;;;;;4917525;29;20091;-66
2021/07/29 04:10:06;;;;;;;6.75;4.57;;;;;;;;;;4917955;29;20525;-67
2021/07/29 04:12:33;;;;;;;5.75;4.10;;;;;;;;;;4917691;29;20163;-66
2021/07/29 04:15:00;;;;;;;10.70;4.60;;;;;;;;;;4917066;29;20063;-65
2021/07/29 04:17:26;;;;;;;6.47;3.80;;;;;;;;;;4917725;29;20082;-65
2021/07/29 04:19:54;;;;;;;7.85;4.63;;;;;;;;;;4917504;29;20111;-65
2021/07/29 04:22:20;;;;;;;5.20;4.28;;;;;;;;;;4917450;29;20096;-65
2021/07/29 04:24:47;;;;;;;6.57;5.18;;;;;;;;;;4912022;29;20073;-65
2021/07/29 04:27:13;;;;;;;5.75;4.50;;;;;;;;;;4909481;29;20076;-65
2021/07/29 04:29:40;;;;;;;4.88;4.38;;;;;;;;;;4909363;29;20090;-65
2021/07/29 04:32:07;;;;;;;8.57;4.35;;;;;;;;;;4906938;29;20099;-64
2021/07/29 04:34:33;;;;;;;5.45;4.38;;;;;;;;;;4914277;29;20131;-65
2021/07/29 04:37:00;;;;;;;4.93;4.32;;;;;;;;;;4916416;29;20444;-65
2021/07/29 04:39:27;;;;;;;5.15;4.13;;;;;;;;;;4917519;29;20052;-65
2021/07/29 04:41:55;;;;;;;5.88;4.63;;;;;;;;;;4917440;29;20076;-65
2021/07/29 04:44:21;;;;;;;5.13;4.30;;;;;;;;;;4916785;29;20515;-65
2021/07/29 04:46:48;;;;;;;5.88;4.05;;;;;;;;;;4917305;29;20503;-65
2021/07/29 04:49:18;;;;;;;6.05;4.68;;;;;;;;;;4917090;29;20467;-65
2021/07/29 04:51:47;;;;;;;5.07;4.57;;;;;;;;;;4917044;29;20052;-66
2021/07/29 04:54:14;;;;;;;7.72;4.63;;;;;;;;;;4916819;29;20411;-65
2021/07/29 04:56:40;;;;;;;4.75;3.83;;;;;;;;;;4917216;29;20147;-65
2021/07/29 04:59:07;;;;;;;9.25;4.95;;;;;;;;;;4916912;29;20079;-65
2021/07/29 05:01:37;;;;;;;5.47;4.20;;;;;;;;;;4917042;29;20080;-65
2021/07/29 05:04:04;;;;;;;8.80;4.15;;;;;;;;;;4916572;29;20074;-65
2021/07/29 05:06:31;;;;;;;5.88;4.50;;;;;;;;;;4916975;29;20100;-65
2021/07/29 05:08:57;;;;;;;6.88;4.55;;;;;;;;;;4917062;29;20103;-65
2021/07/29 05:11:24;;;;;;;4.55;4.07;;;;;;;;;;4925770;29;20134;-65
2021/07/29 05:13:53;;;;;;;4.95;3.92;;;;;;;;;;4935357;29;20079;-66
2021/07/29 05:16:20;;;;;;;5.70;4.30;;;;;;;;;;4935675;29;20090;-65
2021/07/29 05:18:47;;;;;;;5.35;3.92;;;;;;;;;;4932862;29;20056;-66
2021/07/29 05:21:13;;;;;;;4.38;3.60;;;;;;;;;;4933687;29;20082;-65
2021/07/29 05:23:40;;;;;;;6.43;4.45;;;;;;;;;;4933436;29;20456;-66
2021/07/29 05:26:14;;;;;;;6.60;3.85;;;;;;;;;;4930596;29;20087;-65
2021/07/29 05:28:41;;;;;;;5.22;3.78;;;;;;;;;;4922992;29;20470;-65
2021/07/29 05:31:11;;;;;;;4.20;3.78;;;;;;;;;;4932983;29;20110;-65
2021/07/29 05:33:38;;;;;;;4.05;3.65;;;;;;;;;;4933153;29;20075;-65
2021/07/29 05:36:05;;;;;;;5.38;4.28;;;;;;;;;;4933326;29;20094;-65
2021/07/29 05:38:33;;;;;;;5.13;4.25;;;;;;;;;;4933341;29;20151;-65
2021/07/29 05:41:04;;;;;;;4.22;3.83;;;;;;;;;;4933100;29;20060;-65
2021/07/29 05:43:31;;;;;;;4.65;4.03;;;;;;;;;;4932759;29;20103;-65
2021/07/29 05:45:57;;;;;;;5.97;3.90;;;;;;;;;;4933132;29;20131;-65
2021/07/29 05:48:24;;;;;;;6.22;3.88;;;;;;;;;;4933338;29;20052;-65
2021/07/29 05:50:51;;;;;;;6.55;4.07;;;;;;;;;;4933030;29;20087;-65
2021/07/29 05:53:18;;;;;;;7.22;4.25;;;;;;;;;;4932774;29;20130;-65
2021/07/29 05:55:44;;;;;;;5.55;3.53;;;;;;;;;;4919434;29;20467;-65
2021/07/29 05:58:11;;;;;;;11.13;4.15;;;;;;;;;;4913636;29;20099;-64
2021/07/29 06:00:37;;;;;;;5.43;3.78;;;;;;;;;;4914066;29;20127;-65
2021/07/29 06:03:04;;;;;;;6.10;4.15;;;;;;;;;;4913707;29;20586;-65
2021/07/29 06:05:31;;;;;;;6.18;4.10;;;;;;;;;;4913966;29;20060;-65
2021/07/29 06:07:57;;;;;;;6.18;3.33;;;;;;;;;;4913732;29;20084;-65
2021/07/29 06:10:24;;;;;;;7.95;3.65;;;;;;;;;;4913626;29;20391;-65
2021/07/29 06:12:51;;;;;;;5.22;3.88;;;;;;;;;;4913627;29;20124;-65
2021/07/29 06:15:17;;;;;;;5.30;3.78;;;;;;;;;;4913944;29;20099;-65
2021/07/29 06:17:48;;;;;;;7.00;3.80;;;;;;;;;;4913696;29;20518;-68
2021/07/29 06:20:14;;;;;;;6.40;3.58;;;;;;;;;;4914098;29;20088;-66
2021/07/29 06:22:41;;;;;;;5.15;3.10;;;;;;;;;;4919673;29;20083;-67
2021/07/29 06:25:09;;;;;;;6.10;3.38;;;;;;;;;;4933528;29;20479;-67
2021/07/29 06:27:37;;;;;;;4.70;3.80;;;;;;;;;;4934689;29;20083;-67
2021/07/29 06:30:07;;;;;;;6.38;4.30;;;;;;;;;;4934578;29;20090;-66
2021/07/29 06:32:34;;;;;;;7.10;4.00;;;;;;;;;;4932338;29;20533;-67
2021/07/29 06:35:00;;;;;;;5.30;4.05;;;;;;;;;;4932241;29;20490;-66
2021/07/29 06:37:27;;;;;;;5.78;4.05;;;;;;;;;;4932176;29;20463;-68
2021/07/29 06:39:54;;;;;;;5.25;2.85;;;;;;;;;;4932647;29;20091;-67
2021/07/29 06:42:20;;;;;;;5.18;2.80;;;;;;;;;;4932701;29;20134;-67
2021/07/29 06:44:47;;;;;;;6.13;2.90;;;;;;;;;;4932026;29;20083;-66
2021/07/29 06:47:14;;;;;;;2.83;2.63;;;;;;;;;;4932516;29;20534;-66
2021/07/29 06:49:41;;;;;;;3.63;2.38;;;;;;;;;;4932256;29;20095;-66
2021/07/29 06:52:10;;;;;;;3.78;2.42;;;;;;;;;;4923164;29;20139;-66
2021/07/29 06:54:37;;;;;;;3.35;2.40;;;;;;;;;;4913226;29;20135;-68
2021/07/29 06:57:06;;;;;;;5.97;2.67;;;;;;;;;;4913535;29;20138;-67
2021/07/29 06:59:33;;;;;;;3.50;2.30;;;;;;;;;;4914577;29;20103;-66
2021/07/29 07:02:00;;;;;;;5.60;2.08;;;;;;;;;;4913590;29;20098;-67
2021/07/29 07:04:27;;;;;;;2.30;2.10;;;;;;;;;;4912162;29;20048;-67
2021/07/29 07:06:54;;;;;;;3.83;2.13;;;;;;;;;;4914773;29;20091;-67
2021/07/29 07:09:20;;;;;;;2.33;2.05;;;;;;;;;;4915099;29;20079;-67
2021/07/29 07:11:48;;;;;;;2.95;2.60;;;;;;;;;;4915223;29;20064;-66
2021/07/29 07:14:15;;;;;;;5.80;2.42;;;;;;;;;;4915029;29;20119;-66
2021/07/29 07:16:41;;;;;;;4.07;2.05;;;;;;;;;;4915233;29;20052;-67
2021/07/29 07:19:08;;;;;;;3.00;2.67;;;;;;;;;;4918808;29;20517;-66
2021/07/29 07:21:34;;;;;;;4.55;2.15;;;;;;;;;;4934030;29;20091;-68
2021/07/29 07:24:01;;;;;;;4.93;2.60;;;;;;;;;;4933833;29;20090;-67
2021/07/29 07:26:28;;;;;;;5.25;2.63;;;;;;;;;;4934042;29;20491;-66
2021/07/29 07:28:54;;;;;;;2.50;2.10;;;;;;;;;;4933978;29;20078;-67
2021/07/29 07:31:21;;;;;;;3.72;2.10;;;;;;;;;;4934137;29;20083;-66
2021/07/29 07:33:47;;;;;;;3.83;2.03;;;;;;;;;;4928735;29;20048;-67
2021/07/29 07:36:17;;;;;;;3.15;2.50;;;;;;;;;;4915286;29;20098;-67
2021/07/29 07:38:43;;;;;;;3.88;2.35;;;;;;;;;;4915005;29;20091;-67
2021/07/29 07:41:10;;;;;;;3.90;2.40;;;;;;;;;;4915101;29;20091;-66
2021/07/29 07:43:37;;;;;;;5.38;2.30;;;;;;;;;;4914542;29;20095;-67
2021/07/29 07:46:04;;;;;;;4.25;2.30;;;;;;;;;;4913205;29;20095;-69
2021/07/29 07:48:31;;;;;;;2.92;2.50;;;;;;;;;;4894539;29;20084;-70
2021/07/29 07:50:59;;;;;;;3.40;2.03;;;;;;;;;;4897702;29;20091;-70
2021/07/29 07:53:27;;;;;;;4.93;2.20;;;;;;;;;;4897108;29;20083;-72
2021/07/29 07:55:54;;;;;;;4.93;2.50;;;;;;;;;;4909563;29;20150;-72
2021/07/29 07:58:27;;;;;;;5.13;2.75;;;;;;;;;;4903983;29;20087;-72
2021/07/29 08:00:54;;;;;;;4.25;2.10;;;;;;;;;;4908428;29;20594;-65
2021/07/29 08:03:21;;;;;;;2.30;2.10;;;;;;;;;;4904650;29;20056;-68
2021/07/29 08:05:48;;;;;;;3.92;2.55;;;;;;;;;;4905706;29;20048;-67
2021/07/29 08:08:15;;;;;;;3.97;2.40;;;;;;;;;;4903919;29;20093;-65
2021/07/29 08:10:41;;;;;;;3.97;2.42;;;;;;;;;;4904868;29;20091;-66
2021/07/29 08:13:08;;;;;;;3.35;2.20;;;;;;;;;;4905977;29;20129;-66
2021/07/29 08:15:35;;;;;;;5.82;2.30;;;;;;;;;;4905143;29;20049;-66
2021/07/29 08:18:02;;;;;;;4.65;2.20;;;;;;;;;;4902927;29;20058;-65
2021/07/29 08:20:29;;;;;;;3.95;2.25;;;;;;;;;;4905675;29;20072;-64
2021/07/29 08:22:56;;;;;;;6.32;2.30;;;;;;;;;;4903110;29;20337;-66
2021/07/29 08:25:23;;;;;;;5.75;2.35;;;;;;;;;;4904356;29;20127;-65
2021/07/29 08:27:51;;;;;;;3.60;2.25;;;;;;;;;;4904475;29;20159;-72
2021/07/29 08:30:20;;;;;;;5.70;2.60;;;;;;;;;;4909380;29;20052;-70
2021/07/29 08:32:46;;;;;;;4.50;2.60;;;;;;;;;;4905712;29;20102;-71
2021/07/29 08:35:13;;;;;;;4.93;2.40;;;;;;;;;;4905654;29;20083;-73
2021/07/29 08:37:44;;;;;;;3.35;2.92;;;;;;;;;;4907694;29;20083;-70
2021/07/29 08:40:20;;;;;;;3.38;2.40;;;;;;;;;;4904661;29;20048;-68
2021/07/29 08:42:47;;;;;;;5.22;2.63;;;;;;;;;;4908967;29;20578;-69
2021/07/29 08:45:17;;;;;;;2.95;2.33;;;;;;;;;;4902914;29;20580;-69
2021/07/29 08:47:44;;;;;;;3.53;2.35;;;;;;;;;;4905996;29;20052;-70
2021/07/29 08:50:12;;;;;;;3.00;2.40;;;;;;;;;;4904824;29;20084;-70
2021/07/29 08:52:39;;;;;;;3.78;2.38;;;;;;;;;;4907434;29;20059;-65
2021/07/29 08:55:06;;;;;;;3.70;1.85;;;;;;;;;;4900150;29;20109;-71
2021/07/29 08:57:33;;;;;;;4.05;2.33;;;;;;;;;;4903186;29;20632;-65
2021/07/29 09:00:02;;;;;;;3.03;2.28;;;;;;;;;;4906751;29;20108;-72
2021/07/29 09:02:29;;;;;;;4.95;2.60;;;;;;;;;;4905881;29;20116;-65
2021/07/29 09:05:09;;;;;;;3.00;2.58;;;;;;;;;;4906063;29;20067;-65
2021/07/29 09:07:36;;;;;;;7.25;2.50;;;;;;;;;;4904835;29;20111;-65
2021/07/29 09:10:17;;;;;;;5.18;2.42;;;;;;;;;;4903484;29;20083;-65
2021/07/29 09:12:43;;;;;;;8.07;3.08;;;;;;;;;;4904039;29;20088;-67
2021/07/29 09:15:20;;;;;;;5.40;2.55;;;;;;;;;;4904466;29;20095;-69
2021/07/29 09:17:47;;;;;;;2.85;2.42;;;;;;;;;;4906248;29;20516;-69
2021/07/29 09:20:18;;;;;;;4.30;2.55;;;;;;;;;;4904252;29;20052;-69
2021/07/29 09:22:47;;;;;;;4.75;2.50;;;;;;;;;;4900875;29;20064;-69
2021/07/29 09:25:15;;;;;;;3.22;2.72;;;;;;;;;;4903605;29;20057;-68
2021/07/29 09:27:43;;;;;;;4.65;3.17;;;;;;;;;;4910075;29;20043;-68
2021/07/29 09:30:24;;;;;;;4.22;2.22;;;;;;;;;;4909061;29;20052;-68
2021/07/29 09:33:06;;;;;;;3.58;2.60;;;;;;;;;;4907456;29;20051;-65
2021/07/29 09:35:33;;;;;;;3.37;2.77;;;;;;;;;;4909281;29;20139;-65
2021/07/29 09:38:05;;;;;;;11.32;3.13;;;;;;;;;;4906962;29;20087;-66
2021/07/29 09:40:50;;;;;;;3.35;2.38;;;;;;;;;;4904111;29;20564;-63
2021/07/29 09:43:21;;;;;;;5.22;2.78;;;;;;;;;;4901688;29;20135;-65
2021/07/29 09:45:50;;;;;;;4.32;2.70;;;;;;;;;;4904586;29;20480;-67
2021/07/29 09:48:18;;;;;;;7.35;3.10;;;;;;;;;;4906892;29;20052;-64
2021/07/29 09:50:45;;;;;;;3.95;2.80;;;;;;;;;;4885434;29;20087;-64
2021/07/29 09:53:12;;;;;;;3.22;2.60;;;;;;;;;;4905383;29;20102;-75
2021/07/29 09:55:45;;;;;;;6.07;2.10;;;;;;;;;;4901906;29;20098;-77
2021/07/29 09:58:13;;;;;;;3.75;2.53;;;;;;;;;;4901300;29;20052;-75
2021/07/29 10:00:42;;;;;;;2.58;2.15;;;;;;;;;;4905050;29;20096;-73
2021/07/29 10:03:09;;;;;;;4.97;2.95;;;;;;;;;;4906463;29;20052;-71
2021/07/29 10:05:37;;;;;;;4.32;2.60;;;;;;;;;;4905887;29;20148;-70
2021/07/29 10:08:05;;;;;;;3.10;2.53;;;;;;;;;;4902518;29;20471;-70
2021/07/29 10:10:31;;;;;;;4.03;2.88;;;;;;;;;;4885955;29;20157;-68
2021/07/29 10:12:58;;;;;;;4.75;2.65;;;;;;;;;;4903188;29;20147;-67
2021/07/29 10:15:44;;;;;;;4.25;2.70;;;;;;;;;;4904073;29;20099;-69
2021/07/29 10:18:12;;;;;;;4.00;3.15;;;;;;;;;;4902061;29;20143;-67
2021/07/29 10:20:40;;;;;;;4.05;2.80;;;;;;;;;;4903503;29;20147;-64
2021/07/29 10:23:12;;;;;;;3.58;2.90;;;;;;;;;;4901952;29;20052;-66
2021/07/29 10:26:02;;;;;;;3.95;2.50;;;;;;;;;;4904032;29;20049;-66
2021/07/29 10:28:37;;;;;;;2.95;2.50;;;;;;;;;;4902228;29;20053;-65
2021/07/29 10:31:05;;;;;;;5.05;2.85;;;;;;;;;;4904736;29;20142;-66
2021/07/29 10:33:32;;;;;;;4.45;2.72;;;;;;;;;;4902709;29;20223;-66
2021/07/29 10:35:59;;;;;;;4.35;2.95;;;;;;;;;;4904309;29;20052;-65
2021/07/29 10:38:38;;;;;;;4.47;2.78;;;;;;;;;;4901297;29;20102;-66
2021/07/29 10:41:15;;;;;;;3.10;2.78;;;;;;;;;;4902472;29;20056;-65
2021/07/29 10:43:41;;;;;;;3.05;2.75;;;;;;;;;;4901216;29;20107;-65
2021/07/29 10:46:09;;;;;;;4.07;2.70;;;;;;;;;;4899361;29;20504;-65
2021/07/29 10:48:39;;;;;;;4.22;2.92;;;;;;;;;;4904292;29;20091;-65
2021/07/29 10:51:15;;;;;;;11.40;3.47;;;;;;;;;;4898572;29;20578;-65
2021/07/29 10:53:43;;;;;;;3.53;2.80;;;;;;;;;;4902312;29;20095;-65
2021/07/29 10:56:12;;;;;;;3.97;3.35;;;;;;;;;;4904533;29;20049;-65
2021/07/29 10:58:40;;;;;;;4.45;2.90;;;;;;;;;;4901057;29;20091;-65
2021/07/29 11:01:07;;;;;;;4.25;3.45;;;;;;;;;;4905771;29;20136;-65
2021/07/29 11:03:34;;;;;;;3.72;3.15;;;;;;;;;;4912023;29;20052;-66
2021/07/29 11:06:05;;;;;;;4.75;3.70;;;;;;;;;;4906476;29;20055;-66
2021/07/29 11:08:32;;;;;;;3.38;3.05;;;;;;;;;;4913238;29;20665;-66
2021/07/29 11:10:59;;;;;;;3.35;3.03;;;;;;;;;;4904303;29;20057;-66
2021/07/29 11:13:29;;;;;;;4.18;3.78;;;;;;;;;;4914143;29;20131;-66
2021/07/29 11:15:57;;;;;;;3.50;2.88;;;;;;;;;;4885824;29;20080;-66
2021/07/29 11:18:24;;;;;;;5.95;3.75;;;;;;;;;;4904437;29;20054;-65
2021/07/29 11:20:50;;;;;;;7.13;3.80;;;;;;;;;;4902897;29;20102;-65
2021/07/29 11:23:36;;;;;;;4.13;2.92;;;;;;;;;;4904994;29;20056;-65
2021/07/29 11:26:04;;;;;;;3.35;3.05;;;;;;;;;;4913961;29;20112;-65
2021/07/29 11:28:31;;;;;;;3.65;3.00;;;;;;;;;;4906130;29;20469;-65
2021/07/29 11:31:18;;;;;;;5.07;3.40;;;;;;;;;;4907834;29;20063;-66
2021/07/29 11:33:48;;;;;;;8.45;4.25;;;;;;;;;;4905907;29;20052;-66
2021/07/29 11:36:15;;;;;;;4.47;3.22;;;;;;;;;;4904715;29;20049;-65
2021/07/29 11:38:42;;;;;;;5.10;3.45;;;;;;;;;;4905615;29;20088;-65
2021/07/29 11:41:09;;;;;;;3.63;2.80;;;;;;;;;;4906645;29;20453;-65
2021/07/29 11:43:35;;;;;;;5.55;3.67;;;;;;;;;;4906173;29;20048;-65
2021/07/29 11:46:10;;;;;;;3.40;3.00;;;;;;;;;;4904879;29;20135;-66
2021/07/29 11:48:38;;;;;;;5.43;3.28;;;;;;;;;;4910129;29;20535;-66
2021/07/29 11:51:15;;;;;;;4.32;3.13;;;;;;;;;;4905495;29;20088;-67
2021/07/29 11:53:43;;;;;;;5.63;3.22;;;;;;;;;;4904074;29;20083;-65
2021/07/29 11:56:13;;;;;;;2.95;2.65;;;;;;;;;;4906195;29;20083;-65
2021/07/29 11:58:40;;;;;;;3.90;2.95;;;;;;;;;;4902789;29;20084;-67
2021/07/29 12:01:10;;;;;;;4.18;3.10;;;;;;;;;;4904872;29;20139;-66
2021/07/29 12:03:41;;;;;;;5.15;3.13;;;;;;;;;;4904799;29;20064;-66
2021/07/29 12:06:08;;;;;;;3.95;2.70;;;;;;;;;;4910411;29;20068;-64
2021/07/29 12:08:35;;;;;;;4.65;3.05;;;;;;;;;;4905916;29;20100;-65
2021/07/29 12:11:01;;;;;;;3.38;3.05;;;;;;;;;;4902866;29;20080;-66
2021/07/29 12:13:30;;;;;;;5.65;2.78;;;;;;;;;;4905094;29;20458;-65
2021/07/29 12:16:00;;;;;;;3.85;2.95;;;;;;;;;;4902721;29;20048;-65
2021/07/29 12:18:26;;;;;;;4.55;2.58;;;;;;;;;;4905893;29;20131;-65
2021/07/29 12:20:55;;;;;;;3.70;2.80;;;;;;;;;;4907574;29;20087;-65
2021/07/29 12:23:22;;;;;;;2.83;2.58;;;;;;;;;;4905480;29;20087;-65
2021/07/29 12:25:50;;;;;;;3.83;2.88;;;;;;;;;;4904197;29;20098;-66
2021/07/29 12:28:37;;;;;;;4.82;2.30;;;;;;;;;;4908653;29;20090;-65
2021/07/29 12:31:23;;;;;;;4.90;2.70;;;;;;;;;;4908825;29;20130;-65
2021/07/29 12:34:01;;;;;;;5.20;3.38;;;;;;;;;;4904918;29;20049;-65
2021/07/29 12:36:47;;;;;;;2.80;2.30;;;;;;;;;;4905026;29;20087;-65
2021/07/29 12:39:32;;;;;;;4.25;2.63;;;;;;;;;;4918400;29;20140;-65
2021/07/29 12:41:58;;;;;;;4.30;2.90;;;;;;;;;;4906335;29;20084;-65
2021/07/29 12:44:25;;;;;;;5.35;2.83;;;;;;;;;;4905681;29;20087;-65
2021/07/29 12:47:09;;;;;;;3.50;2.53;;;;;;;;;;4902055;29;20091;-65
2021/07/29 12:49:39;;;;;;;5.10;2.72;;;;;;;;;;4913461;29;20115;-65
2021/07/29 12:52:23;;;;;;;4.05;3.10;;;;;;;;;;4909995;29;20098;-65
2021/07/29 12:55:16;;;;;;;4.57;2.58;;;;;;;;;;4908869;29;20103;-65
2021/07/29 12:57:53;;;;;;;4.15;2.50;;;;;;;;;;4904093;29;20080;-65
2021/07/29 13:00:20;;;;;;;5.28;2.33;;;;;;;;;;4907608;29;20059;-65
2021/07/29 13:02:47;;;;;;;5.32;3.00;;;;;;;;;;4906871;29;20484;-65
2021/07/29 13:05:14;;;;;;;3.28;2.92;;;;;;;;;;4903357;29;20058;-65
2021/07/29 13:07:41;;;;;;;3.50;2.55;;;;;;;;;;4902742;29;20080;-65
2021/07/29 13:10:08;;;;;;;5.30;2.90;;;;;;;;;;4903199;29;20096;-65
2021/07/29 13:12:37;;;;;;;3.03;2.63;;;;;;;;;;4907014;29;20094;-65
2021/07/29 13:15:05;;;;;;;2.83;2.22;;;;;;;;;;4903361;29;20086;-66
2021/07/29 13:17:31;;;;;;;4.15;2.47;;;;;;;;;;4907896;29;20048;-65
2021/07/29 13:20:00;;;;;;;2.67;2.47;;;;;;;;;;4903039;29;20076;-65
2021/07/29 13:22:27;;;;;;;6.20;3.00;;;;;;;;;;4903961;29;20052;-65
2021/07/29 13:24:58;;;;;;;3.97;2.67;;;;;;;;;;4902618;29;20497;-65
2021/07/29 13:27:25;;;;;;;2.83;2.50;;;;;;;;;;4903364;29;20083;-65
2021/07/29 13:29:52;;;;;;;3.42;2.53;;;;;;;;;;4904362;29;20080;-65
2021/07/29 13:32:18;;;;;;;2.72;2.33;;;;;;;;;;4903825;29;20090;-65
2021/07/29 13:34:45;;;;;;;4.63;2.80;;;;;;;;;;4902194;29;20090;-65
2021/07/29 13:37:12;;;;;;;2.55;1.95;;;;;;;;;;4902530;29;20044;-65
2021/07/29 13:39:38;;;;;;;7.47;2.63;;;;;;;;;;4906113;29;20151;-65
2021/07/29 13:42:05;;;;;;;3.35;2.33;;;;;;;;;;4904904;29;20139;-65
2021/07/29 13:44:34;;;;;;;3.00;2.47;;;;;;;;;;4905304;29;20086;-66
2021/07/29 13:47:00;;;;;;;3.03;2.72;;;;;;;;;;4906144;29;20099;-65
2021/07/29 13:49:28;;;;;;;3.50;2.40;;;;;;;;;;4909027;29;20071;-65
2021/07/29 13:51:55;;;;;;;3.20;2.58;;;;;;;;;;4906248;29;20519;-66
2021/07/29 13:54:21;;;;;;;3.88;2.50;;;;;;;;;;4905792;29;20162;-66
2021/07/29 13:56:48;;;;;;;3.00;2.55;;;;;;;;;;4902947;29;20123;-65
2021/07/29 13:59:15;;;;;;;5.03;2.90;;;;;;;;;;4904404;29;20186;-65
2021/07/29 14:01:41;;;;;;;2.78;2.58;;;;;;;;;;4908125;29;20079;-65
2021/07/29 14:04:08;;;;;;;2.60;2.33;;;;;;;;;;4902438;29;20052;-65
2021/07/29 14:06:35;;;;;;;5.40;2.78;;;;;;;;;;4903892;29;20080;-65
2021/07/29 14:09:01;;;;;;;2.40;2.20;;;;;;;;;;4904094;29;20088;-65
2021/07/29 14:11:28;;;;;;;2.55;2.35;;;;;;;;;;4905352;29;20134;-67
2021/07/29 14:13:54;;;;;;;2.58;2.10;;;;;;;;;;4901875;29;20055;-66
2021/07/29 14:16:21;;;;;;;6.63;2.50;;;;;;;;;;4901578;29;20059;-66
2021/07/29 14:18:50;;;;;;;2.63;2.38;;;;;;;;;;4901756;29;20144;-65
2021/07/29 14:22:51;;;;;;;4.05;2.80;;;;;;;;;;4905982;29;20051;-65
2021/07/29 14:24:17;;;;;;;5.05;2.80;;;;;;;;;;4904041;29;20137;-74
2021/07/29 14:26:43;;;;;;;5.05;2.58;;;;;;;;;;4904445;29;20091;-74
2021/07/29 14:29:10;;;;;;;3.72;2.70;;;;;;;;;;4907448;29;20056;-74
2021/07/29 14:31:36;;;;;;;5.03;2.35;;;;;;;;;;4902285;29;20078;-75
2021/07/29 14:34:03;;;;;;;4.38;2.92;;;;;;;;;;4903385;29;20561;-71
2021/07/29 14:36:30;;;;;;;4.05;2.42;;;;;;;;;;4904386;29;20052;-73
2021/07/29 14:38:56;;;;;;;3.40;2.72;;;;;;;;;;4903009;29;20056;-71
2021/07/29 14:41:23;;;;;;;3.45;2.42;;;;;;;;;;4905160;29;20058;-76
2021/07/29 14:43:50;;;;;;;5.20;2.72;;;;;;;;;;4891247;29;20084;-70
2021/07/29 14:49:17;;;;;;;3.80;2.30;;;;;;;;;;4904991;29;20774;-70
2021/07/29 14:51:46;;;;;;;2.60;2.40;;;;;;;;;;4903065;29;20090;-70
2021/07/29 14:54:13;;;;;;;4.25;2.80;;;;;;;;;;4903417;29;20170;-69